ANA409 RJTT-RJSK
Flight info
| Callsign | ANA409 |
|---|---|
| Flight time | 0h 45m |
| Altitude | 23000 |
| Route | BRUCE AGRIS Y11 YTE Y32 CHOKA |
| Aircraft | A21N/M-SDE3FGHIRWY/LB1 |
Departure
| Time | 2026-05-06 16:41 |
|---|---|
| Airport | Tokyo Haneda International Airport (RJTT) |
Arrival
| Time | 2026-05-06 17:26 |
|---|---|
| Airport | Akita Airport (RJSK) |
| Time | Latitude | Longitude | Altitude | Speed | Heading |
|---|---|---|---|---|---|
| 2026-05-06 16:18 | 35.55484 | 139.78613 | 29 ft | 0 kts | 150° |
| 2026-05-06 16:30 | 35.55490 | 139.78609 | 29 ft | 2 kts | 156° |
| 2026-05-06 16:30 | 35.55510 | 139.78603 | 29 ft | 2 kts | 176° |
| 2026-05-06 16:30 | 35.55526 | 139.78604 | 29 ft | 2 kts | 190° |
| 2026-05-06 16:31 | 35.55541 | 139.78609 | 28 ft | 2 kts | 204° |
| 2026-05-06 16:31 | 35.55554 | 139.78618 | 28 ft | 2 kts | 218° |
| 2026-05-06 16:31 | 35.55566 | 139.78630 | 28 ft | 2 kts | 215° |
| 2026-05-06 16:31 | 35.55579 | 139.78641 | 27 ft | 2 kts | 216° |
| 2026-05-06 16:32 | 35.55592 | 139.78651 | 27 ft | 2 kts | 216° |
| 2026-05-06 16:32 | 35.55604 | 139.78662 | 26 ft | 2 kts | 215° |
| 2026-05-06 16:32 | 35.55617 | 139.78674 | 26 ft | 2 kts | 207° |
| 2026-05-06 16:32 | 35.55632 | 139.78680 | 25 ft | 2 kts | 194° |
| 2026-05-06 16:33 | 35.55647 | 139.78683 | 25 ft | 2 kts | 182° |
| 2026-05-06 16:33 | 35.55662 | 139.78683 | 24 ft | 2 kts | 171° |
| 2026-05-06 16:33 | 35.55677 | 139.78679 | 24 ft | 2 kts | 159° |
| 2026-05-06 16:34 | 35.55697 | 139.78665 | 24 ft | 0 kts | 148° |
| 2026-05-06 16:36 | 35.55696 | 139.78667 | 24 ft | 0 kts | 148° |
| 2026-05-06 16:36 | 35.55686 | 139.78674 | 24 ft | 2 kts | 149° |
| 2026-05-06 16:37 | 35.55664 | 139.78691 | 24 ft | 4 kts | 147° |
| 2026-05-06 16:37 | 35.55647 | 139.78743 | 22 ft | 9 kts | 79° |
| 2026-05-06 16:37 | 35.55683 | 139.78828 | 18 ft | 12 kts | 60° |
| 2026-05-06 16:37 | 35.55735 | 139.78937 | 13 ft | 14 kts | 59° |
| 2026-05-06 16:38 | 35.55820 | 139.78947 | 13 ft | 14 kts | 330° |
| 2026-05-06 16:38 | 35.55906 | 139.78886 | 13 ft | 14 kts | 330° |
| 2026-05-06 16:38 | 35.55997 | 139.78821 | 12 ft | 15 kts | 329° |
| 2026-05-06 16:38 | 35.56089 | 139.78752 | 12 ft | 15 kts | 328° |
| 2026-05-06 16:39 | 35.56183 | 139.78683 | 11 ft | 15 kts | 331° |
| 2026-05-06 16:39 | 35.56280 | 139.78618 | 11 ft | 16 kts | 330° |
| 2026-05-06 16:39 | 35.56379 | 139.78549 | 10 ft | 15 kts | 335° |
| 2026-05-06 16:39 | 35.56455 | 139.78621 | 9 ft | 15 kts | 60° |
| 2026-05-06 16:40 | 35.56479 | 139.78726 | 9 ft | 10 kts | 126° |
| 2026-05-06 16:40 | 35.56419 | 139.78775 | 9 ft | 10 kts | 150° |
| 2026-05-06 16:40 | 35.56353 | 139.78821 | 9 ft | 11 kts | 150° |
| 2026-05-06 16:40 | 35.56244 | 139.78897 | 9 ft | 29 kts | 149° |
| 2026-05-06 16:41 | 35.55896 | 139.79147 | 9 ft | 93 kts | 150° |
| 2026-05-06 16:41 | 35.55125 | 139.79697 | 9 ft | 156 kts | 150° |
| 2026-05-06 16:41 | 35.54040 | 139.80475 | 169 ft | 193 kts | 151° |
| 2026-05-06 16:41 | 35.52866 | 139.81319 | 958 ft | 192 kts | 152° |
| 2026-05-06 16:42 | 35.51759 | 139.82211 | 1886 ft | 188 kts | 141° |
| 2026-05-06 16:42 | 35.50857 | 139.83405 | 2523 ft | 197 kts | 134° |
| 2026-05-06 16:42 | 35.49907 | 139.84767 | 2982 ft | 214 kts | 134° |
| 2026-05-06 16:42 | 35.48897 | 139.86145 | 3336 ft | 236 kts | 136° |
| 2026-05-06 16:43 | 35.47736 | 139.87654 | 3816 ft | 254 kts | 137° |
| 2026-05-06 16:43 | 35.46512 | 139.89235 | 4720 ft | 254 kts | 137° |
| 2026-05-06 16:43 | 35.45380 | 139.90881 | 5565 ft | 260 kts | 122° |
| 2026-05-06 16:43 | 35.44989 | 139.93071 | 6300 ft | 274 kts | 85° |
| 2026-05-06 16:44 | 35.45675 | 139.95268 | 7083 ft | 279 kts | 52° |
| 2026-05-06 16:44 | 35.47002 | 139.96995 | 7830 ft | 282 kts | 43° |
| 2026-05-06 16:44 | 35.48473 | 139.98639 | 8369 ft | 294 kts | 32° |
| 2026-05-06 16:44 | 35.50399 | 139.99504 | 9028 ft | 292 kts | 359° |
| 2026-05-06 16:45 | 35.52361 | 139.99141 | 9835 ft | 284 kts | 338° |
| 2026-05-06 16:45 | 35.54277 | 139.98396 | 10473 ft | 293 kts | 338° |
| 2026-05-06 16:45 | 35.56303 | 139.97639 | 10862 ft | 310 kts | 340° |
| 2026-05-06 16:45 | 35.58451 | 139.96876 | 11208 ft | 329 kts | 341° |
| 2026-05-06 16:46 | 35.60772 | 139.96323 | 11525 ft | 349 kts | 349° |
| 2026-05-06 16:46 | 35.63277 | 139.96150 | 11844 ft | 368 kts | 355° |
| 2026-05-06 16:46 | 35.65919 | 139.96086 | 12403 ft | 376 kts | 355° |
| 2026-05-06 16:46 | 35.68561 | 139.96022 | 13122 ft | 379 kts | 355° |
| 2026-05-06 16:47 | 35.71258 | 139.95956 | 13828 ft | 381 kts | 355° |
| 2026-05-06 16:47 | 35.73975 | 139.95892 | 14462 ft | 386 kts | 355° |
| 2026-05-06 16:47 | 35.76716 | 139.95830 | 15056 ft | 391 kts | 355° |
| 2026-05-06 16:47 | 35.79483 | 139.95763 | 15660 ft | 395 kts | 354° |
| 2026-05-06 16:48 | 35.82290 | 139.95695 | 16256 ft | 399 kts | 355° |
| 2026-05-06 16:48 | 35.85152 | 139.95627 | 16839 ft | 403 kts | 354° |
| 2026-05-06 16:48 | 35.87984 | 139.95560 | 17402 ft | 406 kts | 354° |
| 2026-05-06 16:48 | 35.90873 | 139.95491 | 17986 ft | 409 kts | 354° |
| 2026-05-06 16:49 | 35.93708 | 139.95425 | 18546 ft | 412 kts | 354° |
| 2026-05-06 16:49 | 35.96624 | 139.95355 | 19100 ft | 415 kts | 354° |
| 2026-05-06 16:49 | 35.99543 | 139.95285 | 19657 ft | 417 kts | 354° |
| 2026-05-06 16:49 | 36.02454 | 139.95216 | 20161 ft | 420 kts | 354° |
| 2026-05-06 16:50 | 36.05426 | 139.95143 | 20659 ft | 423 kts | 354° |
| 2026-05-06 16:50 | 36.08491 | 139.95071 | 21174 ft | 426 kts | 354° |
| 2026-05-06 16:50 | 36.11407 | 139.95001 | 21637 ft | 429 kts | 354° |
| 2026-05-06 16:50 | 36.14543 | 139.94923 | 22133 ft | 431 kts | 354° |
| 2026-05-06 16:51 | 36.17669 | 139.94849 | 22631 ft | 433 kts | 354° |
| 2026-05-06 16:51 | 36.20746 | 139.94775 | 22968 ft | 436 kts | 354° |
| 2026-05-06 16:51 | 36.23877 | 139.94699 | 23031 ft | 435 kts | 353° |
| 2026-05-06 16:51 | 36.26903 | 139.94629 | 23044 ft | 433 kts | 354° |
| 2026-05-06 16:52 | 36.29986 | 139.94553 | 23045 ft | 433 kts | 354° |
| 2026-05-06 16:52 | 36.33005 | 139.94479 | 23042 ft | 432 kts | 354° |
| 2026-05-06 16:52 | 36.36043 | 139.94408 | 23040 ft | 433 kts | 354° |
| 2026-05-06 16:52 | 36.39063 | 139.94338 | 23042 ft | 432 kts | 354° |
| 2026-05-06 16:53 | 36.42079 | 139.94290 | 23045 ft | 434 kts | 355° |
| 2026-05-06 16:53 | 36.45134 | 139.94373 | 23050 ft | 433 kts | 357° |
| 2026-05-06 16:53 | 36.48131 | 139.94499 | 23055 ft | 434 kts | 357° |
| 2026-05-06 16:53 | 36.51183 | 139.94635 | 23052 ft | 433 kts | 358° |
| 2026-05-06 16:54 | 36.54183 | 139.94768 | 23052 ft | 433 kts | 357° |
| 2026-05-06 16:54 | 36.57227 | 139.94902 | 23050 ft | 433 kts | 357° |
| 2026-05-06 16:54 | 36.60235 | 139.95033 | 23052 ft | 433 kts | 357° |
| 2026-05-06 16:54 | 36.63260 | 139.95166 | 23059 ft | 432 kts | 357° |
| 2026-05-06 16:55 | 36.66276 | 139.95296 | 23062 ft | 432 kts | 358° |
| 2026-05-06 16:55 | 36.69269 | 139.95424 | 23063 ft | 430 kts | 357° |
| 2026-05-06 16:55 | 36.72268 | 139.95554 | 23060 ft | 431 kts | 358° |
| 2026-05-06 16:55 | 36.75268 | 139.95683 | 23062 ft | 431 kts | 358° |
| 2026-05-06 16:56 | 36.78281 | 139.95816 | 23068 ft | 429 kts | 358° |
| 2026-05-06 16:56 | 36.81279 | 139.95944 | 23067 ft | 430 kts | 357° |
| 2026-05-06 16:56 | 36.84280 | 139.96109 | 23073 ft | 432 kts | 359° |
| 2026-05-06 16:56 | 36.87282 | 139.96443 | 23068 ft | 433 kts | 2° |
| 2026-05-06 16:57 | 36.90256 | 139.96956 | 23071 ft | 435 kts | 5° |
| 2026-05-06 16:57 | 36.93268 | 139.97658 | 23074 ft | 435 kts | 7° |
| 2026-05-06 16:57 | 36.96221 | 139.98412 | 23068 ft | 435 kts | 7° |
| 2026-05-06 16:57 | 36.99216 | 139.99193 | 23069 ft | 434 kts | 8° |
| 2026-05-06 16:58 | 37.02188 | 139.99965 | 23066 ft | 434 kts | 8° |
| 2026-05-06 16:58 | 37.05123 | 140.00725 | 23074 ft | 433 kts | 7° |
| 2026-05-06 16:58 | 37.08085 | 140.01489 | 23076 ft | 433 kts | 7° |
| 2026-05-06 16:58 | 37.11079 | 140.02260 | 23073 ft | 433 kts | 7° |
| 2026-05-06 16:59 | 37.14072 | 140.03035 | 23069 ft | 433 kts | 7° |
| 2026-05-06 16:59 | 37.17088 | 140.03812 | 23071 ft | 434 kts | 7° |
| 2026-05-06 16:59 | 37.19935 | 140.04549 | 23073 ft | 435 kts | 7° |
| 2026-05-06 16:59 | 37.22922 | 140.05322 | 23073 ft | 434 kts | 7° |
| 2026-05-06 17:00 | 37.25780 | 140.06064 | 23073 ft | 436 kts | 7° |
| 2026-05-06 17:00 | 37.28829 | 140.06853 | 23075 ft | 435 kts | 7° |
| 2026-05-06 17:00 | 37.31772 | 140.07619 | 23074 ft | 435 kts | 7° |
| 2026-05-06 17:00 | 37.34750 | 140.08392 | 23071 ft | 435 kts | 7° |
| 2026-05-06 17:01 | 37.37710 | 140.09163 | 23071 ft | 435 kts | 7° |
| 2026-05-06 17:01 | 37.40693 | 140.09937 | 23068 ft | 434 kts | 7° |
| 2026-05-06 17:01 | 37.43626 | 140.10702 | 23067 ft | 435 kts | 7° |
| 2026-05-06 17:01 | 37.46633 | 140.11485 | 23070 ft | 434 kts | 7° |
| 2026-05-06 17:02 | 37.49594 | 140.12260 | 23068 ft | 433 kts | 7° |
| 2026-05-06 17:02 | 37.52558 | 140.13032 | 23064 ft | 433 kts | 7° |
| 2026-05-06 17:02 | 37.55489 | 140.13797 | 23068 ft | 433 kts | 7° |
| 2026-05-06 17:02 | 37.58442 | 140.14569 | 23072 ft | 433 kts | 7° |
| 2026-05-06 17:03 | 37.61391 | 140.15341 | 23075 ft | 433 kts | 7° |
| 2026-05-06 17:03 | 37.64355 | 140.16112 | 23081 ft | 434 kts | 7° |
| 2026-05-06 17:03 | 37.67350 | 140.16896 | 23093 ft | 434 kts | 7° |
| 2026-05-06 17:03 | 37.70277 | 140.17662 | 23100 ft | 433 kts | 7° |
| 2026-05-06 17:04 | 37.73255 | 140.18442 | 23106 ft | 433 kts | 7° |
| 2026-05-06 17:04 | 37.76170 | 140.19208 | 23117 ft | 432 kts | 7° |
| 2026-05-06 17:04 | 37.79097 | 140.19974 | 23119 ft | 432 kts | 7° |
| 2026-05-06 17:04 | 37.82044 | 140.20747 | 23114 ft | 432 kts | 7° |
| 2026-05-06 17:05 | 37.84984 | 140.21521 | 23110 ft | 432 kts | 7° |
| 2026-05-06 17:05 | 37.87927 | 140.22296 | 23104 ft | 433 kts | 7° |
| 2026-05-06 17:05 | 37.90887 | 140.23076 | 23096 ft | 433 kts | 7° |
| 2026-05-06 17:05 | 37.93850 | 140.23854 | 23087 ft | 433 kts | 7° |
| 2026-05-06 17:06 | 37.96788 | 140.24629 | 23076 ft | 432 kts | 7° |
| 2026-05-06 17:06 | 37.99771 | 140.25417 | 23073 ft | 433 kts | 7° |
| 2026-05-06 17:06 | 38.02729 | 140.26199 | 23068 ft | 432 kts | 6° |
| 2026-05-06 17:06 | 38.05687 | 140.26979 | 23064 ft | 432 kts | 7° |
| 2026-05-06 17:07 | 38.08634 | 140.27760 | 23058 ft | 432 kts | 6° |
| 2026-05-06 17:07 | 38.11620 | 140.28552 | 23060 ft | 432 kts | 7° |
| 2026-05-06 17:07 | 38.14659 | 140.29356 | 23054 ft | 433 kts | 7° |
| 2026-05-06 17:07 | 38.17617 | 140.30142 | 23047 ft | 433 kts | 7° |
| 2026-05-06 17:08 | 38.20561 | 140.30925 | 22814 ft | 432 kts | 6° |
| 2026-05-06 17:08 | 38.23496 | 140.31705 | 22580 ft | 430 kts | 7° |
| 2026-05-06 17:08 | 38.26421 | 140.32484 | 22341 ft | 429 kts | 7° |
| 2026-05-06 17:08 | 38.29352 | 140.33266 | 22102 ft | 426 kts | 7° |
| 2026-05-06 17:09 | 38.32265 | 140.34041 | 21861 ft | 425 kts | 7° |
| 2026-05-06 17:09 | 38.35147 | 140.34804 | 21620 ft | 424 kts | 6° |
| 2026-05-06 17:09 | 38.38061 | 140.35315 | 21381 ft | 419 kts | 0° |
| 2026-05-06 17:09 | 38.40930 | 140.35422 | 21145 ft | 415 kts | 354° |
| 2026-05-06 17:10 | 38.43810 | 140.35167 | 20905 ft | 411 kts | 350° |
| 2026-05-06 17:10 | 38.46675 | 140.34787 | 20660 ft | 409 kts | 349° |
| 2026-05-06 17:10 | 38.49485 | 140.34386 | 20396 ft | 408 kts | 349° |
| 2026-05-06 17:10 | 38.52306 | 140.33986 | 20098 ft | 407 kts | 349° |
| 2026-05-06 17:11 | 38.55129 | 140.33589 | 19706 ft | 405 kts | 349° |
| 2026-05-06 17:11 | 38.57921 | 140.33199 | 19227 ft | 402 kts | 349° |
| 2026-05-06 17:11 | 38.60700 | 140.32812 | 18714 ft | 400 kts | 350° |
| 2026-05-06 17:11 | 38.63469 | 140.32430 | 18212 ft | 397 kts | 350° |
| 2026-05-06 17:12 | 38.66189 | 140.32056 | 17705 ft | 396 kts | 350° |
| 2026-05-06 17:12 | 38.68929 | 140.31679 | 17168 ft | 395 kts | 350° |
| 2026-05-06 17:12 | 38.71669 | 140.31299 | 16616 ft | 394 kts | 350° |
| 2026-05-06 17:12 | 38.74386 | 140.30924 | 16082 ft | 392 kts | 350° |
| 2026-05-06 17:13 | 38.77098 | 140.30550 | 15562 ft | 390 kts | 350° |
| 2026-05-06 17:13 | 38.79766 | 140.30180 | 15071 ft | 388 kts | 350° |
| 2026-05-06 17:13 | 38.82475 | 140.29805 | 14519 ft | 387 kts | 350° |
| 2026-05-06 17:13 | 38.85165 | 140.29433 | 13965 ft | 386 kts | 351° |
| 2026-05-06 17:14 | 38.87829 | 140.29065 | 13653 ft | 377 kts | 350° |
| 2026-05-06 17:14 | 38.90396 | 140.28713 | 13449 ft | 365 kts | 350° |
| 2026-05-06 17:14 | 38.92839 | 140.28378 | 13310 ft | 348 kts | 350° |
| 2026-05-06 17:14 | 38.95202 | 140.28053 | 13156 ft | 332 kts | 349° |
| 2026-05-06 17:15 | 38.97453 | 140.27743 | 13021 ft | 317 kts | 349° |
| 2026-05-06 17:15 | 38.99600 | 140.27444 | 12931 ft | 304 kts | 349° |
| 2026-05-06 17:15 | 39.01697 | 140.27151 | 12692 ft | 302 kts | 349° |
| 2026-05-06 17:15 | 39.03795 | 140.26852 | 12248 ft | 304 kts | 349° |
| 2026-05-06 17:16 | 39.05900 | 140.26555 | 11848 ft | 304 kts | 349° |
| 2026-05-06 17:16 | 39.08002 | 140.26260 | 11473 ft | 303 kts | 349° |
| 2026-05-06 17:16 | 39.10059 | 140.25972 | 11109 ft | 302 kts | 349° |
| 2026-05-06 17:16 | 39.12224 | 140.25670 | 10717 ft | 301 kts | 349° |
| 2026-05-06 17:17 | 39.14287 | 140.25383 | 10342 ft | 300 kts | 349° |
| 2026-05-06 17:17 | 39.16392 | 140.25089 | 9958 ft | 298 kts | 349° |
| 2026-05-06 17:17 | 39.18438 | 140.24803 | 9582 ft | 297 kts | 349° |
| 2026-05-06 17:17 | 39.20504 | 140.24513 | 9201 ft | 295 kts | 349° |
| 2026-05-06 17:18 | 39.22557 | 140.24223 | 8827 ft | 294 kts | 349° |
| 2026-05-06 17:18 | 39.24581 | 140.23940 | 8450 ft | 292 kts | 349° |
| 2026-05-06 17:18 | 39.26610 | 140.23656 | 8057 ft | 291 kts | 349° |
| 2026-05-06 17:18 | 39.28644 | 140.23695 | 7663 ft | 296 kts | 9° |
| 2026-05-06 17:19 | 39.30533 | 140.24684 | 7318 ft | 297 kts | 26° |
| 2026-05-06 17:19 | 39.32310 | 140.26039 | 6964 ft | 295 kts | 28° |
| 2026-05-06 17:19 | 39.34078 | 140.27426 | 6624 ft | 293 kts | 29° |
| 2026-05-06 17:19 | 39.35793 | 140.28764 | 6310 ft | 291 kts | 28° |
| 2026-05-06 17:20 | 39.37531 | 140.30107 | 5964 ft | 289 kts | 28° |
| 2026-05-06 17:20 | 39.39262 | 140.31432 | 5620 ft | 287 kts | 28° |
| 2026-05-06 17:20 | 39.40974 | 140.32735 | 5282 ft | 284 kts | 28° |
| 2026-05-06 17:20 | 39.42681 | 140.34032 | 4903 ft | 283 kts | 28° |
| 2026-05-06 17:21 | 39.44389 | 140.35332 | 4559 ft | 281 kts | 28° |
| 2026-05-06 17:21 | 39.46042 | 140.36591 | 4395 ft | 272 kts | 28° |
| 2026-05-06 17:21 | 39.47639 | 140.37810 | 4359 ft | 257 kts | 28° |
| 2026-05-06 17:21 | 39.49178 | 140.38982 | 4291 ft | 255 kts | 27° |
| 2026-05-06 17:22 | 39.50711 | 140.40144 | 4138 ft | 254 kts | 26° |
| 2026-05-06 17:22 | 39.52323 | 140.40932 | 3928 ft | 248 kts | 6° |
| 2026-05-06 17:22 | 39.54018 | 140.41213 | 3678 ft | 243 kts | 2° |
| 2026-05-06 17:22 | 39.55684 | 140.41428 | 3414 ft | 239 kts | 2° |
| 2026-05-06 17:23 | 39.57327 | 140.41621 | 3146 ft | 234 kts | 356° |
| 2026-05-06 17:23 | 39.58849 | 140.41083 | 2850 ft | 223 kts | 322° |
| 2026-05-06 17:23 | 39.59831 | 140.39612 | 2557 ft | 213 kts | 289° |
| 2026-05-06 17:23 | 39.60190 | 140.37779 | 2285 ft | 205 kts | 276° |
| 2026-05-06 17:24 | 39.60341 | 140.35989 | 1945 ft | 197 kts | 272° |
| 2026-05-06 17:24 | 39.60461 | 140.34302 | 1962 ft | 180 kts | 273° |
| 2026-05-06 17:24 | 39.60591 | 140.32739 | 1804 ft | 171 kts | 274° |
| 2026-05-06 17:24 | 39.60726 | 140.31238 | 1534 ft | 160 kts | 274° |
| 2026-05-06 17:25 | 39.60854 | 140.29817 | 1332 ft | 160 kts | 275° |
| 2026-05-06 17:25 | 39.60980 | 140.28386 | 1182 ft | 159 kts | 275° |
| 2026-05-06 17:25 | 39.61121 | 140.26952 | 1054 ft | 160 kts | 274° |
| 2026-05-06 17:25 | 39.61230 | 140.25520 | 735 ft | 159 kts | 276° |
| 2026-05-06 17:26 | 39.61367 | 140.24097 | 532 ft | 161 kts | 276° |
| 2026-05-06 17:26 | 39.61498 | 140.22629 | 324 ft | 160 kts | 276° |
| 2026-05-06 17:26 | 39.61607 | 140.21335 | 306 ft | 109 kts | 279° |
| 2026-05-06 17:26 | 39.61671 | 140.20656 | 291 ft | 43 kts | 277° |
| 2026-05-06 17:27 | 39.61661 | 140.20442 | 286 ft | 19 kts | 213° |
| 2026-05-06 17:27 | 39.61557 | 140.20427 | 283 ft | 13 kts | 166° |
| 2026-05-06 17:27 | 39.61516 | 140.20517 | 286 ft | 10 kts | 97° |
| 2026-05-06 17:27 | 39.61509 | 140.20598 | 289 ft | 7 kts | 96° |
| 2026-05-06 17:28 | 39.61503 | 140.20657 | 291 ft | 5 kts | 96° |
| 2026-05-06 17:28 | 39.61499 | 140.20708 | 293 ft | 5 kts | 96° |
| 2026-05-06 17:28 | 39.61495 | 140.20764 | 295 ft | 8 kts | 96° |
| 2026-05-06 17:28 | 39.61487 | 140.20856 | 298 ft | 12 kts | 96° |
| 2026-05-06 17:29 | 39.61475 | 140.20991 | 301 ft | 17 kts | 96° |
| 2026-05-06 17:29 | 39.61461 | 140.21149 | 305 ft | 17 kts | 96° |
| 2026-05-06 17:29 | 39.61447 | 140.21298 | 308 ft | 16 kts | 96° |
| 2026-05-06 17:29 | 39.61435 | 140.21442 | 310 ft | 16 kts | 96° |
| 2026-05-06 17:30 | 39.61420 | 140.21593 | 311 ft | 17 kts | 97° |
| 2026-05-06 17:30 | 39.61407 | 140.21738 | 314 ft | 14 kts | 96° |
| 2026-05-06 17:30 | 39.61396 | 140.21866 | 315 ft | 14 kts | 96° |
| 2026-05-06 17:30 | 39.61351 | 140.21933 | 317 ft | 9 kts | 182° |
| 2026-05-06 17:31 | 39.61293 | 140.21927 | 319 ft | 7 kts | 187° |
| 2026-05-06 17:31 | 39.61259 | 140.21921 | 320 ft | 0 kts | 186° |